sensor_id;sensor_type;location;lat;lon;timestamp;temperature;humidity
9723;DHT22;4900;49.306;8.500;2023-02-01T00:00:18;5.82;85.65
9723;DHT22;4900;49.306;8.500;2023-02-01T00:03:22;5.78;85.59
9723;DHT22;4900;49.306;8.500;2023-02-01T00:06:25;5.87;85.49
9723;DHT22;4900;49.306;8.500;2023-02-01T00:09:27;5.85;85.39
9723;DHT22;4900;49.306;8.500;2023-02-01T00:12:31;5.82;85.41
9723;DHT22;4900;49.306;8.500;2023-02-01T00:15:34;5.89;85.14
9723;DHT22;4900;49.306;8.500;2023-02-01T00:18:37;5.88;85.11
9723;DHT22;4900;49.306;8.500;2023-02-01T00:21:41;5.87;85.23
9723;DHT22;4900;49.306;8.500;2023-02-01T00:24:44;5.88;85.26
9723;DHT22;4900;49.306;8.500;2023-02-01T00:27:50;5.91;85.09
9723;DHT22;4900;49.306;8.500;2023-02-01T00:31:00;5.92;84.99
9723;DHT22;4900;49.306;8.500;2023-02-01T00:34:04;5.91;84.98
9723;DHT22;4900;49.306;8.500;2023-02-01T00:37:07;5.85;85.10
9723;DHT22;4900;49.306;8.500;2023-02-01T00:40:11;5.79;85.41
9723;DHT22;4900;49.306;8.500;2023-02-01T00:43:14;5.85;85.28
9723;DHT22;4900;49.306;8.500;2023-02-01T00:46:18;5.89;85.07
9723;DHT22;4900;49.306;8.500;2023-02-01T00:49:21;5.94;85.09
9723;DHT22;4900;49.306;8.500;2023-02-01T00:52:25;5.91;85.05
9723;DHT22;4900;49.306;8.500;2023-02-01T00:55:28;5.94;84.98
9723;DHT22;4900;49.306;8.500;2023-02-01T00:58:31;5.89;85.08
9723;DHT22;4900;49.306;8.500;2023-02-01T01:01:34;5.91;85.11
9723;DHT22;4900;49.306;8.500;2023-02-01T01:04:37;5.98;84.99
9723;DHT22;4900;49.306;8.500;2023-02-01T01:07:40;6.01;84.82
9723;DHT22;4900;49.306;8.500;2023-02-01T01:10:44;5.95;84.96
9723;DHT22;4900;49.306;8.500;2023-02-01T01:13:48;6.01;84.99
9723;DHT22;4900;49.306;8.500;2023-02-01T01:16:52;5.97;84.86
9723;DHT22;4900;49.306;8.500;2023-02-01T01:19:54;5.97;84.96
9723;DHT22;4900;49.306;8.500;2023-02-01T01:22:59;6.02;84.77
9723;DHT22;4900;49.306;8.500;2023-02-01T01:26:07;6.02;84.69
9723;DHT22;4900;49.306;8.500;2023-02-01T01:29:10;6.01;84.68
9723;DHT22;4900;49.306;8.500;2023-02-01T01:32:14;6.03;84.72
9723;DHT22;4900;49.306;8.500;2023-02-01T01:35:16;5.99;84.80
9723;DHT22;4900;49.306;8.500;2023-02-01T01:38:19;6.01;84.71
9723;DHT22;4900;49.306;8.500;2023-02-01T01:41:25;5.98;84.72
9723;DHT22;4900;49.306;8.500;2023-02-01T01:44:55;5.98;84.72
9723;DHT22;4900;49.306;8.500;2023-02-01T01:48:03;6.03;84.61
9723;DHT22;4900;49.306;8.500;2023-02-01T01:51:10;5.97;84.64
9723;DHT22;4900;49.306;8.500;2023-02-01T01:54:28;6.09;84.49
9723;DHT22;4900;49.306;8.500;2023-02-01T01:57:39;6.08;84.25
9723;DHT22;4900;49.306;8.500;2023-02-01T02:00:44;6.09;84.31
9723;DHT22;4900;49.306;8.500;2023-02-01T02:03:47;6.12;84.30
9723;DHT22;4900;49.306;8.500;2023-02-01T02:07:02;6.19;84.07
9723;DHT22;4900;49.306;8.500;2023-02-01T02:10:09;6.09;84.16
9723;DHT22;4900;49.306;8.500;2023-02-01T02:13:16;6.10;84.15
9723;DHT22;4900;49.306;8.500;2023-02-01T02:26:58;6.26;83.94
9723;DHT22;4900;49.306;8.500;2023-02-01T02:30:36;6.17;84.07
9723;DHT22;4900;49.306;8.500;2023-02-01T02:34:11;6.22;83.84
9723;DHT22;4900;49.306;8.500;2023-02-01T02:37:43;6.16;83.96
9723;DHT22;4900;49.306;8.500;2023-02-01T02:44:39;6.25;83.71
9723;DHT22;4900;49.306;8.500;2023-02-01T02:51:32;6.20;83.77
9723;DHT22;4900;49.306;8.500;2023-02-01T02:54:57;6.22;83.75
9723;DHT22;4900;49.306;8.500;2023-02-01T02:58:02;6.27;83.70
9723;DHT22;4900;49.306;8.500;2023-02-01T03:01:25;6.20;83.99
9723;DHT22;4900;49.306;8.500;2023-02-01T03:04:52;6.23;84.04
9723;DHT22;4900;49.306;8.500;2023-02-01T03:11:15;6.17;84.37
9723;DHT22;4900;49.306;8.500;2023-02-01T03:14:21;6.17;84.35
9723;DHT22;4900;49.306;8.500;2023-02-01T03:17:30;6.19;84.34
9723;DHT22;4900;49.306;8.500;2023-02-01T03:20:37;6.20;84.42
9723;DHT22;4900;49.306;8.500;2023-02-01T03:23:42;6.25;84.37
9723;DHT22;4900;49.306;8.500;2023-02-01T03:26:54;6.19;84.42
9723;DHT22;4900;49.306;8.500;2023-02-01T03:30:16;6.23;84.30
9723;DHT22;4900;49.306;8.500;2023-02-01T03:33:23;6.25;84.25
9723;DHT22;4900;49.306;8.500;2023-02-01T03:36:29;6.22;84.53
9723;DHT22;4900;49.306;8.500;2023-02-01T03:39:38;6.25;84.53
9723;DHT22;4900;49.306;8.500;2023-02-01T03:42:47;6.20;84.58
9723;DHT22;4900;49.306;8.500;2023-02-01T03:45:56;6.17;84.62
9723;DHT22;4900;49.306;8.500;2023-02-01T03:49:03;6.26;84.53
9723;DHT22;4900;49.306;8.500;2023-02-01T03:52:13;6.25;84.57
9723;DHT22;4900;49.306;8.500;2023-02-01T03:55:18;6.25;84.37
9723;DHT22;4900;49.306;8.500;2023-02-01T03:58:25;6.20;84.51
9723;DHT22;4900;49.306;8.500;2023-02-01T04:01:29;6.20;84.53
9723;DHT22;4900;49.306;8.500;2023-02-01T04:04:34;6.23;84.62
9723;DHT22;4900;49.306;8.500;2023-02-01T04:07:37;6.17;84.61
9723;DHT22;4900;49.306;8.500;2023-02-01T04:10:40;6.29;84.48
9723;DHT22;4900;49.306;8.500;2023-02-01T04:13:44;6.22;84.60
9723;DHT22;4900;49.306;8.500;2023-02-01T04:16:47;6.16;84.82
9723;DHT22;4900;49.306;8.500;2023-02-01T04:19:50;6.19;84.77
9723;DHT22;4900;49.306;8.500;2023-02-01T04:22:53;6.23;84.73
9723;DHT22;4900;49.306;8.500;2023-02-01T04:25:59;6.19;84.70
9723;DHT22;4900;49.306;8.500;2023-02-01T04:29:03;6.19;84.71
9723;DHT22;4900;49.306;8.500;2023-02-01T04:32:06;6.17;84.68
9723;DHT22;4900;49.306;8.500;2023-02-01T04:35:09;6.25;84.66
9723;DHT22;4900;49.306;8.500;2023-02-01T04:38:12;6.27;84.42
9723;DHT22;4900;49.306;8.500;2023-02-01T04:41:15;6.23;84.54
9723;DHT22;4900;49.306;8.500;2023-02-01T04:44:21;6.20;84.51
9723;DHT22;4900;49.306;8.500;2023-02-01T04:47:24;6.20;84.40
9723;DHT22;4900;49.306;8.500;2023-02-01T04:50:27;6.26;84.36
9723;DHT22;4900;49.306;8.500;2023-02-01T04:53:30;6.30;84.10
9723;DHT22;4900;49.306;8.500;2023-02-01T04:56:34;6.22;84.29
9723;DHT22;4900;49.306;8.500;2023-02-01T04:59:40;6.33;84.07
9723;DHT22;4900;49.306;8.500;2023-02-01T05:02:43;6.36;83.99
9723;DHT22;4900;49.306;8.500;2023-02-01T05:05:49;6.34;83.87
9723;DHT22;4900;49.306;8.500;2023-02-01T05:08:52;6.30;84.01
9723;DHT22;4900;49.306;8.500;2023-02-01T05:11:55;6.36;83.86
9723;DHT22;4900;49.306;8.500;2023-02-01T05:15:17;6.29;83.78
9723;DHT22;4900;49.306;8.500;2023-02-01T05:18:20;6.26;83.99
9723;DHT22;4900;49.306;8.500;2023-02-01T05:21:24;6.26;84.02
9723;DHT22;4900;49.306;8.500;2023-02-01T05:24:27;6.34;83.96
9723;DHT22;4900;49.306;8.500;2023-02-01T05:27:30;6.34;83.95
9723;DHT22;4900;49.306;8.500;2023-02-01T05:30:33;6.33;83.80
9723;DHT22;4900;49.306;8.500;2023-02-01T05:33:37;6.30;84.00
9723;DHT22;4900;49.306;8.500;2023-02-01T05:36:40;6.30;83.99
9723;DHT22;4900;49.306;8.500;2023-02-01T05:39:44;6.30;84.13
9723;DHT22;4900;49.306;8.500;2023-02-01T05:42:46;6.26;84.35
9723;DHT22;4900;49.306;8.500;2023-02-01T05:45:51;6.30;84.43
9723;DHT22;4900;49.306;8.500;2023-02-01T05:48:55;6.30;84.47
9723;DHT22;4900;49.306;8.500;2023-02-01T05:51:58;6.33;84.51
9723;DHT22;4900;49.306;8.500;2023-02-01T05:55:01;6.25;84.95
9723;DHT22;4900;49.306;8.500;2023-02-01T05:58:05;6.23;85.29
9723;DHT22;4900;49.306;8.500;2023-02-01T06:01:08;6.22;85.33
9723;DHT22;4900;49.306;8.500;2023-02-01T06:04:11;6.19;85.40
9723;DHT22;4900;49.306;8.500;2023-02-01T06:07:14;6.17;85.52
9723;DHT22;4900;49.306;8.500;2023-02-01T06:10:18;6.16;85.79
9723;DHT22;4900;49.306;8.500;2023-02-01T06:13:21;6.16;85.71
9723;DHT22;4900;49.306;8.500;2023-02-01T06:16:24;6.19;85.66
9723;DHT22;4900;49.306;8.500;2023-02-01T06:19:27;6.13;85.81
9723;DHT22;4900;49.306;8.500;2023-02-01T06:22:30;6.13;85.85
9723;DHT22;4900;49.306;8.500;2023-02-01T06:25:33;6.12;85.91
9723;DHT22;4900;49.306;8.500;2023-02-01T06:28:36;6.09;86.04
9723;DHT22;4900;49.306;8.500;2023-02-01T06:31:38;6.09;86.16
9723;DHT22;4900;49.306;8.500;2023-02-01T06:34:42;6.05;86.30
9723;DHT22;4900;49.306;8.500;2023-02-01T06:37:46;6.03;86.27
9723;DHT22;4900;49.306;8.500;2023-02-01T06:40:52;6.02;86.40
9723;DHT22;4900;49.306;8.500;2023-02-01T06:43:56;6.05;86.49
9723;DHT22;4900;49.306;8.500;2023-02-01T06:46:59;6.06;86.38
9723;DHT22;4900;49.306;8.500;2023-02-01T06:50:02;5.99;86.60
9723;DHT22;4900;49.306;8.500;2023-02-01T06:53:05;6.01;86.60
9723;DHT22;4900;49.306;8.500;2023-02-01T06:56:08;5.99;86.67
9723;DHT22;4900;49.306;8.500;2023-02-01T06:59:12;5.94;86.82
9723;DHT22;4900;49.306;8.500;2023-02-01T07:02:15;5.97;86.81
9723;DHT22;4900;49.306;8.500;2023-02-01T07:05:18;5.94;86.77
9723;DHT22;4900;49.306;8.500;2023-02-01T07:08:21;5.95;86.70
9723;DHT22;4900;49.306;8.500;2023-02-01T07:11:24;5.92;86.88
9723;DHT22;4900;49.306;8.500;2023-02-01T07:14:30;5.91;86.97
9723;DHT22;4900;49.306;8.500;2023-02-01T07:18:07;5.97;86.79
9723;DHT22;4900;49.306;8.500;2023-02-01T07:21:10;6.02;86.48
9723;DHT22;4900;49.306;8.500;2023-02-01T07:24:14;6.05;86.23
9723;DHT22;4900;49.306;8.500;2023-02-01T07:27:17;6.02;85.95
9723;DHT22;4900;49.306;8.500;2023-02-01T07:30:20;6.03;85.89
9723;DHT22;4900;49.306;8.500;2023-02-01T07:33:23;6.10;85.79
9723;DHT22;4900;49.306;8.500;2023-02-01T07:36:28;6.08;85.88
9723;DHT22;4900;49.306;8.500;2023-02-01T07:39:31;6.08;86.12
9723;DHT22;4900;49.306;8.500;2023-02-01T07:42:34;6.12;86.19
9723;DHT22;4900;49.306;8.500;2023-02-01T07:45:38;6.20;86.43
9723;DHT22;4900;49.306;8.500;2023-02-01T07:48:41;6.17;86.52
9723;DHT22;4900;49.306;8.500;2023-02-01T07:51:43;6.22;86.46
9723;DHT22;4900;49.306;8.500;2023-02-01T07:54:46;6.30;86.47
9723;DHT22;4900;49.306;8.500;2023-02-01T07:57:49;6.34;86.28
9723;DHT22;4900;49.306;8.500;2023-02-01T08:00:53;6.34;86.34
9723;DHT22;4900;49.306;8.500;2023-02-01T08:04:15;6.34;86.30
9723;DHT22;4900;49.306;8.500;2023-02-01T08:07:17;6.37;86.31
9723;DHT22;4900;49.306;8.500;2023-02-01T08:10:20;6.38;86.18
9723;DHT22;4900;49.306;8.500;2023-02-01T08:13:23;6.36;86.07
9723;DHT22;4900;49.306;8.500;2023-02-01T08:16:26;6.40;86.14
9723;DHT22;4900;49.306;8.500;2023-02-01T08:19:30;6.38;85.97
9723;DHT22;4900;49.306;8.500;2023-02-01T08:22:33;6.44;86.14
9723;DHT22;4900;49.306;8.500;2023-02-01T08:25:35;6.54;86.03
9723;DHT22;4900;49.306;8.500;2023-02-01T08:28:40;6.61;85.88
9723;DHT22;4900;49.306;8.500;2023-02-01T08:31:44;6.81;85.44
9723;DHT22;4900;49.306;8.500;2023-02-01T08:34:47;6.95;84.72
9723;DHT22;4900;49.306;8.500;2023-02-01T08:37:50;7.02;84.15
9723;DHT22;4900;49.306;8.500;2023-02-01T08:40:53;7.13;83.52
9723;DHT22;4900;49.306;8.500;2023-02-01T08:43:57;7.20;82.83
9723;DHT22;4900;49.306;8.500;2023-02-01T08:47:01;7.37;82.42
9723;DHT22;4900;49.306;8.500;2023-02-01T08:50:04;7.51;81.94
9723;DHT22;4900;49.306;8.500;2023-02-01T08:53:07;7.69;81.54
9723;DHT22;4900;49.306;8.500;2023-02-01T08:56:11;7.83;80.88
9723;DHT22;4900;49.306;8.500;2023-02-01T08:59:15;7.95;80.22
9723;DHT22;4900;49.306;8.500;2023-02-01T09:02:19;8.18;79.45
9723;DHT22;4900;49.306;8.500;2023-02-01T09:05:22;8.35;78.88
9723;DHT22;4900;49.306;8.500;2023-02-01T09:08:29;8.48;78.24
9723;DHT22;4900;49.306;8.500;2023-02-01T09:11:32;8.54;77.96
9723;DHT22;4900;49.306;8.500;2023-02-01T09:14:35;8.52;77.83
9723;DHT22;4900;49.306;8.500;2023-02-01T09:17:38;8.40;77.62
9723;DHT22;4900;49.306;8.500;2023-02-01T09:20:42;8.35;77.76
9723;DHT22;4900;49.306;8.500;2023-02-01T09:23:45;8.42;77.68
9723;DHT22;4900;49.306;8.500;2023-02-01T09:26:51;8.34;77.75
9723;DHT22;4900;49.306;8.500;2023-02-01T09:29:55;8.21;77.96
9723;DHT22;4900;49.306;8.500;2023-02-01T09:32:58;8.13;78.05
9723;DHT22;4900;49.306;8.500;2023-02-01T09:36:04;8.05;78.23
9723;DHT22;4900;49.306;8.500;2023-02-01T09:39:07;8.09;78.28
9723;DHT22;4900;49.306;8.500;2023-02-01T09:42:34;8.18;78.48
9723;DHT22;4900;49.306;8.500;2023-02-01T09:49:13;8.49;77.68
9723;DHT22;4900;49.306;8.500;2023-02-01T09:52:19;8.69;76.75
9723;DHT22;4900;49.306;8.500;2023-02-01T09:59:23;8.95;74.23
9723;DHT22;4900;49.306;8.500;2023-02-01T10:02:24;9.25;73.49
9723;DHT22;4900;49.306;8.500;2023-02-01T10:09:14;9.20;71.82
9723;DHT22;4900;49.306;8.500;2023-02-01T10:19:24;9.41;70.38
9723;DHT22;4900;49.306;8.500;2023-02-01T10:26:01;9.23;70.78
9723;DHT22;4900;49.306;8.500;2023-02-01T10:29:15;8.95;71.68
9723;DHT22;4900;49.306;8.500;2023-02-01T10:32:27;8.82;72.36
9723;DHT22;4900;49.306;8.500;2023-02-01T10:35:34;8.80;72.80
9723;DHT22;4900;49.306;8.500;2023-02-01T10:38:39;8.59;73.03
9723;DHT22;4900;49.306;8.500;2023-02-01T10:41:42;8.56;72.82
9723;DHT22;4900;49.306;8.500;2023-02-01T10:44:48;8.45;73.01
9723;DHT22;4900;49.306;8.500;2023-02-01T10:47:52;8.49;72.62
9723;DHT22;4900;49.306;8.500;2023-02-01T10:51:06;8.56;72.86
9723;DHT22;4900;49.306;8.500;2023-02-01T10:54:18;8.46;73.06
9723;DHT22;4900;49.306;8.500;2023-02-01T10:57:25;8.44;73.17
9723;DHT22;4900;49.306;8.500;2023-02-01T11:00:43;8.45;73.21
9723;DHT22;4900;49.306;8.500;2023-02-01T11:03:55;8.61;72.94
9723;DHT22;4900;49.306;8.500;2023-02-01T11:07:24;8.62;73.00
9723;DHT22;4900;49.306;8.500;2023-02-01T11:10:39;8.65;73.18
9723;DHT22;4900;49.306;8.500;2023-02-01T11:13:43;8.66;73.12
9723;DHT22;4900;49.306;8.500;2023-02-01T11:16:48;8.76;73.20
9723;DHT22;4900;49.306;8.500;2023-02-01T11:20:00;8.92;72.97
9723;DHT22;4900;49.306;8.500;2023-02-01T11:23:03;8.66;72.84
9723;DHT22;4900;49.306;8.500;2023-02-01T11:26:15;8.61;72.79
9723;DHT22;4900;49.306;8.500;2023-02-01T11:29:23;8.68;72.28
9723;DHT22;4900;49.306;8.500;2023-02-01T11:32:32;8.63;72.33
9723;DHT22;4900;49.306;8.500;2023-02-01T11:35:38;8.62;71.92
9723;DHT22;4900;49.306;8.500;2023-02-01T11:42:16;8.85;71.72
9723;DHT22;4900;49.306;8.500;2023-02-01T11:45:30;8.80;71.80
9723;DHT22;4900;49.306;8.500;2023-02-01T11:48:34;8.62;71.03
9723;DHT22;4900;49.306;8.500;2023-02-01T12:05:47;8.55;69.88
9723;DHT22;4900;49.306;8.500;2023-02-01T12:09:00;8.62;70.07
9723;DHT22;4900;49.306;8.500;2023-02-01T12:29:29;8.58;70.20
9723;DHT22;4900;49.306;8.500;2023-02-01T12:39:38;8.62;69.52
9723;DHT22;4900;49.306;8.500;2023-02-01T12:42:53;8.54;69.41
9723;DHT22;4900;49.306;8.500;2023-02-01T12:46:04;8.61;69.15
9723;DHT22;4900;49.306;8.500;2023-02-01T12:52:44;8.49;69.08
9723;DHT22;4900;49.306;8.500;2023-02-01T12:55:57;8.63;68.80
9723;DHT22;4900;49.306;8.500;2023-02-01T12:59:11;8.65;69.00
9723;DHT22;4900;49.306;8.500;2023-02-01T13:02:25;8.56;68.77
9723;DHT22;4900;49.306;8.500;2023-02-01T13:05:36;8.68;68.47
9723;DHT22;4900;49.306;8.500;2023-02-01T13:12:29;8.69;68.01
9723;DHT22;4900;49.306;8.500;2023-02-01T13:15:42;8.79;67.89
9723;DHT22;4900;49.306;8.500;2023-02-01T13:18:49;8.65;67.44
9723;DHT22;4900;49.306;8.500;2023-02-01T13:21:59;8.62;67.17
9723;DHT22;4900;49.306;8.500;2023-02-01T13:25:13;8.65;67.13
9723;DHT22;4900;49.306;8.500;2023-02-01T13:32:12;8.80;67.37
9723;DHT22;4900;49.306;8.500;2023-02-01T13:45:29;8.80;66.74
9723;DHT22;4900;49.306;8.500;2023-02-01T13:48:51;8.79;66.72
9723;DHT22;4900;49.306;8.500;2023-02-01T13:51:56;8.68;67.07
9723;DHT22;4900;49.306;8.500;2023-02-01T13:55:15;8.45;67.13
9723;DHT22;4900;49.306;8.500;2023-02-01T13:58:19;8.40;67.54
9723;DHT22;4900;49.306;8.500;2023-02-01T14:04:45;8.26;67.50
9723;DHT22;4900;49.306;8.500;2023-02-01T14:11:41;8.14;67.72
9723;DHT22;4900;49.306;8.500;2023-02-01T14:14:44;8.16;67.91
9723;DHT22;4900;49.306;8.500;2023-02-01T14:17:48;8.09;67.84
9723;DHT22;4900;49.306;8.500;2023-02-01T14:24:29;8.02;67.78
9723;DHT22;4900;49.306;8.500;2023-02-01T14:27:35;8.05;67.97
9723;DHT22;4900;49.306;8.500;2023-02-01T14:30:41;8.06;68.04
9723;DHT22;4900;49.306;8.500;2023-02-01T14:33:45;8.02;68.14
9723;DHT22;4900;49.306;8.500;2023-02-01T14:37:03;8.06;68.12
9723;DHT22;4900;49.306;8.500;2023-02-01T14:40:20;8.03;68.43
9723;DHT22;4900;49.306;8.500;2023-02-01T14:44:13;8.07;68.45
9723;DHT22;4900;49.306;8.500;2023-02-01T14:53:40;8.33;68.21
9723;DHT22;4900;49.306;8.500;2023-02-01T14:56:46;8.23;68.15
9723;DHT22;4900;49.306;8.500;2023-02-01T14:59:53;8.33;68.27
9723;DHT22;4900;49.306;8.500;2023-02-01T15:03:34;8.21;68.37
9723;DHT22;4900;49.306;8.500;2023-02-01T15:09:47;8.21;68.12
9723;DHT22;4900;49.306;8.500;2023-02-01T15:12:51;8.17;67.92
9723;DHT22;4900;49.306;8.500;2023-02-01T15:19:12;8.14;68.18
9723;DHT22;4900;49.306;8.500;2023-02-01T15:22:18;8.13;68.30
9723;DHT22;4900;49.306;8.500;2023-02-01T15:25:27;8.13;68.29
9723;DHT22;4900;49.306;8.500;2023-02-01T15:28:30;8.09;68.17
9723;DHT22;4900;49.306;8.500;2023-02-01T15:31:45;8.03;68.18
9723;DHT22;4900;49.306;8.500;2023-02-01T15:34:49;8.05;68.11
9723;DHT22;4900;49.306;8.500;2023-02-01T15:37:53;8.09;68.06
9723;DHT22;4900;49.306;8.500;2023-02-01T15:41:17;8.16;68.04
9723;DHT22;4900;49.306;8.500;2023-02-01T15:47:34;8.18;67.98
9723;DHT22;4900;49.306;8.500;2023-02-01T15:50:39;8.24;68.04
9723;DHT22;4900;49.306;8.500;2023-02-01T15:53:53;8.13;68.12
9723;DHT22;4900;49.306;8.500;2023-02-01T15:57:00;8.13;68.22
9723;DHT22;4900;49.306;8.500;2023-02-01T16:00:18;8.18;68.47
9723;DHT22;4900;49.306;8.500;2023-02-01T16:03:41;8.10;68.71
9723;DHT22;4900;49.306;8.500;2023-02-01T16:06:59;8.12;68.67
9723;DHT22;4900;49.306;8.500;2023-02-01T16:10:26;7.90;69.11
9723;DHT22;4900;49.306;8.500;2023-02-01T16:13:29;7.92;69.21
9723;DHT22;4900;49.306;8.500;2023-02-01T16:16:32;7.90;69.31
9723;DHT22;4900;49.306;8.500;2023-02-01T16:19:35;7.88;69.42
9723;DHT22;4900;49.306;8.500;2023-02-01T16:22:38;7.79;69.71
9723;DHT22;4900;49.306;8.500;2023-02-01T16:25:41;7.72;70.06
9723;DHT22;4900;49.306;8.500;2023-02-01T16:28:44;7.71;70.21
9723;DHT22;4900;49.306;8.500;2023-02-01T16:31:48;7.62;70.33
9723;DHT22;4900;49.306;8.500;2023-02-01T16:34:51;7.55;70.61
9723;DHT22;4900;49.306;8.500;2023-02-01T16:37:55;7.47;70.79
9723;DHT22;4900;49.306;8.500;2023-02-01T16:40:58;7.40;71.18
9723;DHT22;4900;49.306;8.500;2023-02-01T16:44:02;7.40;71.39
9723;DHT22;4900;49.306;8.500;2023-02-01T16:47:25;7.30;71.60
9723;DHT22;4900;49.306;8.500;2023-02-01T16:50:28;7.20;72.00
9723;DHT22;4900;49.306;8.500;2023-02-01T16:53:34;7.16;72.09
9723;DHT22;4900;49.306;8.500;2023-02-01T16:56:38;7.19;72.00
9723;DHT22;4900;49.306;8.500;2023-02-01T16:59:44;7.12;72.25
9723;DHT22;4900;49.306;8.500;2023-02-01T17:02:47;7.09;72.45
9723;DHT22;4900;49.306;8.500;2023-02-01T17:05:53;7.07;72.48
9723;DHT22;4900;49.306;8.500;2023-02-01T17:08:58;7.15;72.21
9723;DHT22;4900;49.306;8.500;2023-02-01T17:12:03;7.07;72.54
9723;DHT22;4900;49.306;8.500;2023-02-01T17:15:06;7.05;72.63
9723;DHT22;4900;49.306;8.500;2023-02-01T17:18:14;7.09;72.42
9723;DHT22;4900;49.306;8.500;2023-02-01T17:21:17;7.06;72.28
9723;DHT22;4900;49.306;8.500;2023-02-01T17:24:24;7.13;72.24
9723;DHT22;4900;49.306;8.500;2023-02-01T17:27:27;7.13;72.07
9723;DHT22;4900;49.306;8.500;2023-02-01T17:30:32;7.19;72.05
9723;DHT22;4900;49.306;8.500;2023-02-01T17:33:35;7.22;71.96
9723;DHT22;4900;49.306;8.500;2023-02-01T17:36:39;7.19;71.82
9723;DHT22;4900;49.306;8.500;2023-02-01T17:39:42;7.22;71.92
9723;DHT22;4900;49.306;8.500;2023-02-01T17:42:57;7.28;71.77
9723;DHT22;4900;49.306;8.500;2023-02-01T17:46:12;7.28;71.76
9723;DHT22;4900;49.306;8.500;2023-02-01T17:49:16;7.27;71.59
9723;DHT22;4900;49.306;8.500;2023-02-01T17:52:19;7.33;71.62
9723;DHT22;4900;49.306;8.500;2023-02-01T17:55:24;7.38;71.45
9723;DHT22;4900;49.306;8.500;2023-02-01T17:58:27;7.35;71.40
9723;DHT22;4900;49.306;8.500;2023-02-01T18:01:34;7.44;71.22
9723;DHT22;4900;49.306;8.500;2023-02-01T18:04:38;7.43;71.18
9723;DHT22;4900;49.306;8.500;2023-02-01T18:07:41;7.45;71.07
9723;DHT22;4900;49.306;8.500;2023-02-01T18:10:47;7.54;71.08
9723;DHT22;4900;49.306;8.500;2023-02-01T18:13:52;7.47;71.16
9723;DHT22;4900;49.306;8.500;2023-02-01T18:16:55;7.48;71.17
9723;DHT22;4900;49.306;8.500;2023-02-01T18:19:58;7.43;71.26
9723;DHT22;4900;49.306;8.500;2023-02-01T18:23:02;7.24;71.73
9723;DHT22;4900;49.306;8.500;2023-02-01T18:26:05;7.33;71.68
9723;DHT22;4900;49.306;8.500;2023-02-01T18:29:08;7.22;71.80
9723;DHT22;4900;49.306;8.500;2023-02-01T18:32:11;7.16;72.13
9723;DHT22;4900;49.306;8.500;2023-02-01T18:35:20;7.15;72.15
9723;DHT22;4900;49.306;8.500;2023-02-01T18:38:24;7.05;72.38
9723;DHT22;4900;49.306;8.500;2023-02-01T18:41:27;7.02;72.68
9723;DHT22;4900;49.306;8.500;2023-02-01T18:44:30;6.99;72.74
9723;DHT22;4900;49.306;8.500;2023-02-01T18:47:33;6.92;73.02
9723;DHT22;4900;49.306;8.500;2023-02-01T18:50:38;6.99;73.08
9723;DHT22;4900;49.306;8.500;2023-02-01T18:53:42;6.98;73.26
9723;DHT22;4900;49.306;8.500;2023-02-01T18:56:44;7.00;73.29
9723;DHT22;4900;49.306;8.500;2023-02-01T18:59:47;7.02;73.27
9723;DHT22;4900;49.306;8.500;2023-02-01T19:02:50;7.03;73.51
9723;DHT22;4900;49.306;8.500;2023-02-01T19:05:54;7.03;73.56
9723;DHT22;4900;49.306;8.500;2023-02-01T19:08:58;7.00;73.71
9723;DHT22;4900;49.306;8.500;2023-02-01T19:12:01;7.02;73.64
9723;DHT22;4900;49.306;8.500;2023-02-01T19:15:07;7.02;73.68
9723;DHT22;4900;49.306;8.500;2023-02-01T19:18:14;7.05;73.62
9723;DHT22;4900;49.306;8.500;2023-02-01T19:21:21;7.12;73.60
9723;DHT22;4900;49.306;8.500;2023-02-01T19:24:24;7.16;73.51
9723;DHT22;4900;49.306;8.500;2023-02-01T19:27:30;7.19;73.53
9723;DHT22;4900;49.306;8.500;2023-02-01T19:30:33;7.22;73.44
9723;DHT22;4900;49.306;8.500;2023-02-01T19:33:36;7.31;73.22
9723;DHT22;4900;49.306;8.500;2023-02-01T19:36:39;7.33;73.25
9723;DHT22;4900;49.306;8.500;2023-02-01T19:39:43;7.40;73.11
9723;DHT22;4900;49.306;8.500;2023-02-01T19:42:48;7.41;72.94
9723;DHT22;4900;49.306;8.500;2023-02-01T19:45:52;7.37;73.20
9723;DHT22;4900;49.306;8.500;2023-02-01T19:48:55;7.38;73.16
9723;DHT22;4900;49.306;8.500;2023-02-01T19:51:58;7.31;73.31
9723;DHT22;4900;49.306;8.500;2023-02-01T19:55:02;7.33;73.39
9723;DHT22;4900;49.306;8.500;2023-02-01T19:58:06;7.45;73.16
9723;DHT22;4900;49.306;8.500;2023-02-01T20:01:08;7.45;73.11
9723;DHT22;4900;49.306;8.500;2023-02-01T20:04:16;7.44;73.05
9723;DHT22;4900;49.306;8.500;2023-02-01T20:07:19;7.41;73.24
9723;DHT22;4900;49.306;8.500;2023-02-01T20:10:22;7.30;73.45
9723;DHT22;4900;49.306;8.500;2023-02-01T20:13:25;7.28;73.68
9723;DHT22;4900;49.306;8.500;2023-02-01T20:16:28;7.19;73.95
9723;DHT22;4900;49.306;8.500;2023-02-01T20:19:32;7.19;73.96
9723;DHT22;4900;49.306;8.500;2023-02-01T20:22:35;7.16;74.11
9723;DHT22;4900;49.306;8.500;2023-02-01T20:25:38;7.13;74.23
9723;DHT22;4900;49.306;8.500;2023-02-01T20:28:40;7.13;74.25
9723;DHT22;4900;49.306;8.500;2023-02-01T20:31:44;7.16;74.03
9723;DHT22;4900;49.306;8.500;2023-02-01T20:34:47;7.12;73.88
9723;DHT22;4900;49.306;8.500;2023-02-01T20:37:55;7.15;73.86
9723;DHT22;4900;49.306;8.500;2023-02-01T20:41:07;7.17;73.91
9723;DHT22;4900;49.306;8.500;2023-02-01T20:44:10;7.19;73.78
9723;DHT22;4900;49.306;8.500;2023-02-01T20:47:13;7.20;73.78
9723;DHT22;4900;49.306;8.500;2023-02-01T20:50:17;7.19;73.78
9723;DHT22;4900;49.306;8.500;2023-02-01T20:53:21;7.19;73.60
9723;DHT22;4900;49.306;8.500;2023-02-01T20:56:25;7.17;73.63
9723;DHT22;4900;49.306;8.500;2023-02-01T20:59:28;7.24;73.67
9723;DHT22;4900;49.306;8.500;2023-02-01T21:02:31;7.27;73.63
9723;DHT22;4900;49.306;8.500;2023-02-01T21:05:34;7.16;73.68
9723;DHT22;4900;49.306;8.500;2023-02-01T21:08:44;7.20;73.75
9723;DHT22;4900;49.306;8.500;2023-02-01T21:11:50;7.20;73.81
9723;DHT22;4900;49.306;8.500;2023-02-01T21:14:53;7.26;73.85
9723;DHT22;4900;49.306;8.500;2023-02-01T21:17:57;7.28;73.68
9723;DHT22;4900;49.306;8.500;2023-02-01T21:21:13;7.37;73.55
9723;DHT22;4900;49.306;8.500;2023-02-01T21:24:16;7.44;73.44
9723;DHT22;4900;49.306;8.500;2023-02-01T21:27:19;7.44;73.44
9723;DHT22;4900;49.306;8.500;2023-02-01T21:30:23;7.54;73.33
9723;DHT22;4900;49.306;8.500;2023-02-01T21:33:26;7.54;73.33
9723;DHT22;4900;49.306;8.500;2023-02-01T21:36:29;7.59;73.31
9723;DHT22;4900;49.306;8.500;2023-02-01T21:39:38;7.59;73.30
9723;DHT22;4900;49.306;8.500;2023-02-01T21:42:40;7.58;73.46
9723;DHT22;4900;49.306;8.500;2023-02-01T21:45:47;7.66;73.37
9723;DHT22;4900;49.306;8.500;2023-02-01T21:48:50;7.65;73.39
9723;DHT22;4900;49.306;8.500;2023-02-01T21:51:54;7.61;73.52
9723;DHT22;4900;49.306;8.500;2023-02-01T21:54:57;7.63;73.48
9723;DHT22;4900;49.306;8.500;2023-02-01T21:58:01;7.69;73.36
9723;DHT22;4900;49.306;8.500;2023-02-01T22:01:04;7.75;73.26
9723;DHT22;4900;49.306;8.500;2023-02-01T22:04:07;7.68;73.41
9723;DHT22;4900;49.306;8.500;2023-02-01T22:07:12;7.69;73.42
9723;DHT22;4900;49.306;8.500;2023-02-01T22:10:14;7.69;73.43
9723;DHT22;4900;49.306;8.500;2023-02-01T22:13:18;7.74;73.40
9723;DHT22;4900;49.306;8.500;2023-02-01T22:16:21;7.72;73.45
9723;DHT22;4900;49.306;8.500;2023-02-01T22:19:24;7.72;73.47
9723;DHT22;4900;49.306;8.500;2023-02-01T22:22:28;7.68;73.67
9723;DHT22;4900;49.306;8.500;2023-02-01T22:25:32;7.69;73.69
9723;DHT22;4900;49.306;8.500;2023-02-01T22:28:38;7.69;73.81
9723;DHT22;4900;49.306;8.500;2023-02-01T22:31:41;7.69;73.82
9723;DHT22;4900;49.306;8.500;2023-02-01T22:34:44;7.71;73.91
9723;DHT22;4900;49.306;8.500;2023-02-01T22:37:47;7.69;73.95
9723;DHT22;4900;49.306;8.500;2023-02-01T22:40:58;7.63;74.10
9723;DHT22;4900;49.306;8.500;2023-02-01T22:44:01;7.71;74.04
9723;DHT22;4900;49.306;8.500;2023-02-01T22:47:04;7.71;74.11